Pleasant Plains, Illinois
Current Conditions -  °F | °C
As of 4:52 AM on Monday 20 Oct 2014 (Local Time) from KSPI Reporting Station
Broken Clouds Broken Clouds  
Wind Chill: 54°   Ceiling: 7000
Heat Index: 54°   Visibility: 10mi
Dew Point: 47°   Wind: 8mph
Humidity: 77%   Direction: 220°SW
Pressure: 29.91"   Gusts: NA
Location:  39.87°N, 89.92°W
Report Text: KSPI 200952Z 22007KT 10SM BKN070 12/08 A2991 RMK AO2 SLP127 T01220083
Loading
Personal Weather Stations






























Interactive Weather Map New forecast layout! Learn more

10-Day Weather Forecast

Advertisements
Track Severe Weather on mobile